Terminal Aerodrome Forecast
Issued by NWS Springfield, MO

Home | Current Version | Previous Version | Text Only | Print | Product List | Glossary On
Versions: 1 2 3 4 5 6 7 8 9 10 11 12 13 14
686
FTUS43 KSGF 122320
TAFSGF
TAF
KSGF 122320Z 1300/1324 36009KT P6SM SCT250
     FM131000 07008KT P6SM BKN100 OVC250
     FM131700 10007KT P6SM BKN120=

USA.gov is the U.S. government's official web portal to all federal, state and local government web resources and services.